Sign in

Goboko Update

Goboko is set to continue

The Goboko booking system is to continue under a new operator, a member of one of our longest-subscribed flying clubs

The new and previous operators of the site are working to ensure there will be no interruption to your booking service as the transition takes place. Of course, aircraft booking will continue to be free

Thank you for your continued commitment to Goboko

Info

Aviation weather

METAR KDAB 170853Z 18004KT 10SM OVC250 25/25 A3006 RMK SLP177 T02500250 55004

TAF KDAB 170531Z 1706/1806 00000KT P6SM BKN250 FM171400 23006KT P6SM SCT030 SCT250 FM171800 21007KT P6SM VCTS SCT045CB SCT250 FM180000 21004KT P6SM FEW050 SCT080 BKN150 FM180400 20003KT P6SM BKN250

Aviation weather from ADDS. Re-check weather before flight.

-